createdAt,value
2022-12-27T00:02:30.201Z,1.30
2022-12-27T00:05:03.103Z,0.73
2022-12-27T00:07:35.901Z,0.75
2022-12-27T00:10:09.600Z,0.75
2022-12-27T00:12:42.145Z,0.55
2022-12-27T00:15:14.992Z,0.88
2022-12-27T00:17:47.514Z,0.95
2022-12-27T00:20:20.432Z,1.00
2022-12-27T00:22:52.997Z,1.00
2022-12-27T00:25:26.044Z,0.73
2022-12-27T00:27:58.564Z,0.73
2022-12-27T00:30:32.248Z,1.10
2022-12-27T00:33:04.742Z,0.75
2022-12-27T00:35:39.414Z,0.65
2022-12-27T00:38:11.917Z,0.77
2022-12-27T00:40:44.744Z,1.10
2022-12-27T00:43:17.380Z,0.80
2022-12-27T00:45:50.613Z,1.30
2022-12-27T00:48:23.190Z,0.90
2022-12-27T00:51:05.583Z,0.90
2022-12-27T00:53:38.115Z,1.17
2022-12-27T00:56:14.991Z,0.75
2022-12-27T00:58:47.870Z,0.82
2022-12-27T01:01:22.708Z,1.20
2022-12-27T01:03:57.296Z,0.82
2022-12-27T01:06:33.438Z,0.50
2022-12-27T01:09:06.593Z,0.90
2022-12-27T01:11:40.835Z,0.90
2022-12-27T01:14:13.391Z,1.20
2022-12-27T01:16:47.424Z,0.75
2022-12-27T01:19:20.053Z,1.08
2022-12-27T01:21:52.820Z,0.82
2022-12-27T01:24:25.406Z,0.85
2022-12-27T01:26:58.846Z,0.73
2022-12-27T01:29:31.339Z,1.10
2022-12-27T01:32:04.362Z,1.65
2022-12-27T01:34:36.948Z,1.17
2022-12-27T01:37:09.723Z,1.10
2022-12-27T01:39:42.263Z,0.43
2022-12-27T01:42:37.874Z,1.67
2022-12-27T01:45:16.575Z,1.33
2022-12-27T01:47:51.540Z,0.75
2022-12-27T01:50:26.914Z,1.40
2022-12-27T01:53:14.391Z,1.13
2022-12-27T01:56:01.166Z,1.55
2022-12-27T01:58:36.508Z,0.82
2022-12-27T02:01:17.766Z,1.58
2022-12-27T02:03:58.478Z,1.08
2022-12-27T02:09:29.432Z,0.40
2022-12-27T02:12:05.284Z,1.38
2022-12-27T02:14:46.810Z,0.95
2022-12-27T02:17:24.609Z,1.45
2022-12-27T02:20:09.422Z,0.90
2022-12-27T02:23:40.150Z,0.88
2022-12-27T02:26:31.540Z,1.27
2022-12-27T02:29:16.039Z,0.88
2022-12-27T02:31:51.658Z,1.85
2022-12-27T02:34:35.610Z,0.65
2022-12-27T02:37:12.199Z,1.40
2022-12-27T02:39:49.055Z,1.10
2022-12-27T02:42:40.725Z,1.73
2022-12-27T02:45:43.141Z,0.80
2022-12-27T02:48:34.733Z,0.77
2022-12-27T02:51:44.653Z,1.58
2022-12-27T02:54:23.177Z,0.80
2022-12-27T02:57:30.740Z,0.80
2022-12-27T03:00:24.922Z,1.55
2022-12-27T03:03:38.377Z,1.48
2022-12-27T03:06:38.185Z,1.10
2022-12-27T03:09:43.895Z,1.40
2022-12-27T03:12:52.202Z,2.45
2022-12-27T03:15:57.647Z,1.35
2022-12-27T03:18:45.519Z,0.93
2022-12-27T03:21:49.385Z,1.48
2022-12-27T03:24:46.520Z,0.82
2022-12-27T03:27:31.595Z,1.40
2022-12-27T03:30:29.621Z,0.73
2022-12-27T03:33:15.768Z,1.17
2022-12-27T03:36:09.942Z,1.27
2022-12-27T03:39:12.756Z,1.70
2022-12-27T03:42:09.716Z,0.93
2022-12-27T03:44:42.347Z,1.70
2022-12-27T03:47:34.450Z,1.30
2022-12-27T03:50:38.293Z,1.27
2022-12-27T03:53:31.231Z,1.83
2022-12-27T03:56:05.641Z,1.25
2022-12-27T03:58:38.404Z,2.05
2022-12-27T04:01:11.112Z,1.55
2022-12-27T04:03:43.977Z,1.08
2022-12-27T04:06:16.501Z,1.17
2022-12-27T04:09:07.899Z,1.42
2022-12-27T04:11:59.185Z,0.98
2022-12-27T04:14:50.386Z,1.77
2022-12-27T04:17:41.615Z,1.30
2022-12-27T04:20:33.141Z,1.58
2022-12-27T04:23:24.414Z,1.45
2022-12-27T04:26:16.245Z,1.48
2022-12-27T04:29:07.311Z,1.13
2022-12-27T04:31:58.494Z,1.50
2022-12-27T04:34:39.997Z,1.70
2022-12-27T04:37:16.598Z,1.40
2022-12-27T04:40:09.354Z,1.40
2022-12-27T04:43:01.604Z,1.17
2022-12-27T04:45:52.467Z,1.33
2022-12-27T04:48:46.549Z,1.38
2022-12-27T04:51:37.449Z,0.93
2022-12-27T04:54:38.212Z,1.30
2022-12-27T05:00:01.835Z,0.73
2022-12-27T05:02:34.833Z,1.40
2022-12-27T05:05:08.655Z,0.98
2022-12-27T05:07:59.765Z,1.25
2022-12-27T05:10:51.281Z,1.33
2022-12-27T05:13:42.070Z,1.42
2022-12-27T05:16:15.370Z,1.65
2022-12-27T05:18:48.036Z,0.80
2022-12-27T05:21:21.174Z,1.33
2022-12-27T05:24:12.256Z,1.10
2022-12-27T05:26:45.403Z,1.65
2022-12-27T05:29:17.887Z,1.23
2022-12-27T05:31:50.669Z,0.88
2022-12-27T05:34:23.172Z,1.48
2022-12-27T05:36:56.175Z,1.63
2022-12-27T05:39:28.648Z,1.80
2022-12-27T05:42:01.428Z,1.55
2022-12-27T05:44:33.904Z,1.08
2022-12-27T05:47:06.673Z,1.17
2022-12-27T05:49:39.199Z,1.38
2022-12-27T05:52:11.963Z,1.40
2022-12-27T05:54:44.479Z,1.70
2022-12-27T05:57:17.275Z,0.93
2022-12-27T05:59:49.799Z,1.60
2022-12-27T06:02:22.790Z,1.60
2022-12-27T06:04:55.396Z,1.33
2022-12-27T06:07:28.213Z,1.10
2022-12-27T06:10:00.761Z,1.38
2022-12-27T06:12:33.769Z,1.63
2022-12-27T06:15:07.121Z,1.65
2022-12-27T06:17:39.953Z,1.67
2022-12-27T06:20:12.516Z,1.00
2022-12-27T06:22:45.858Z,1.30
2022-12-27T06:25:18.471Z,1.02
2022-12-27T06:27:51.319Z,1.10
2022-12-27T06:30:23.813Z,2.60
2022-12-27T06:32:56.708Z,1.17
2022-12-27T06:35:29.198Z,0.90
2022-12-27T06:38:02.265Z,1.38
2022-12-27T06:40:34.761Z,2.60
2022-12-27T06:43:07.594Z,1.90
2022-12-27T06:45:40.229Z,1.33
2022-12-27T06:48:13.024Z,1.48
2022-12-27T06:50:45.539Z,1.33
2022-12-27T06:53:18.476Z,1.00
2022-12-27T06:55:50.972Z,1.67
2022-12-27T06:58:23.857Z,1.33
2022-12-27T07:00:56.344Z,1.40
2022-12-27T07:03:29.390Z,1.58
2022-12-27T07:06:03.840Z,1.40
2022-12-27T07:08:36.729Z,1.45
2022-12-27T07:11:11.673Z,1.40
2022-12-27T07:13:47.773Z,1.27
2022-12-27T07:16:26.864Z,1.30
2022-12-27T07:18:59.950Z,1.43
2022-12-27T07:21:32.731Z,1.85
2022-12-27T07:24:06.326Z,1.98
2022-12-27T07:26:39.561Z,1.92
2022-12-27T07:29:12.660Z,1.55
2022-12-27T07:31:45.151Z,1.40
2022-12-27T07:34:18.064Z,2.15
2022-12-27T07:36:50.567Z,1.15
2022-12-27T07:39:23.349Z,1.40
2022-12-27T07:41:55.868Z,1.52
2022-12-27T07:44:28.659Z,1.25
2022-12-27T07:47:01.222Z,2.35
2022-12-27T07:49:34.045Z,2.22
2022-12-27T07:52:06.920Z,1.95
2022-12-27T07:54:39.668Z,1.70
2022-12-27T07:57:12.180Z,2.85
2022-12-27T07:59:45.038Z,1.77
2022-12-27T08:02:17.600Z,1.80
2022-12-27T08:04:50.568Z,2.47
2022-12-27T08:07:24.749Z,2.08
2022-12-27T08:09:57.821Z,2.33
2022-12-27T08:12:30.434Z,2.00
2022-12-27T08:15:03.431Z,1.63
2022-12-27T08:17:36.060Z,1.35
2022-12-27T08:20:14.695Z,1.83
2022-12-27T08:22:47.194Z,1.92
2022-12-27T08:25:20.036Z,1.73
2022-12-27T08:27:52.553Z,2.72
2022-12-27T08:30:25.354Z,1.98
2022-12-27T08:32:58.705Z,1.80
2022-12-27T08:35:52.164Z,2.05
2022-12-27T08:38:25.723Z,1.92
2022-12-27T08:40:58.727Z,2.28
2022-12-27T08:43:31.320Z,2.67
2022-12-27T08:46:05.914Z,1.92
2022-12-27T08:48:38.469Z,2.10
2022-12-27T08:51:24.839Z,2.85
2022-12-27T08:54:04.722Z,1.73
2022-12-27T08:57:20.792Z,2.42
2022-12-27T08:59:57.201Z,2.33
2022-12-27T09:02:30.071Z,2.85
2022-12-27T09:05:02.709Z,2.20
2022-12-27T09:07:35.604Z,1.80
2022-12-27T09:10:08.658Z,2.63
2022-12-27T09:13:05.527Z,2.42
2022-12-27T09:15:38.754Z,2.35
2022-12-27T09:18:12.120Z,1.48
2022-12-27T09:20:44.795Z,2.53
2022-12-27T09:23:17.869Z,2.45
2022-12-27T09:25:50.400Z,2.67
2022-12-27T09:28:23.194Z,2.42
2022-12-27T09:30:55.721Z,1.83
2022-12-27T09:33:29.166Z,2.13
2022-12-27T09:36:06.846Z,3.10
2022-12-27T09:38:40.107Z,2.53
2022-12-27T09:41:40.849Z,2.17
2022-12-27T09:44:14.030Z,1.98
2022-12-27T09:46:58.079Z,1.77
2022-12-27T09:49:37.643Z,2.60
2022-12-27T09:52:31.536Z,1.75
2022-12-27T09:55:23.338Z,1.50
2022-12-27T09:58:05.909Z,2.05
2022-12-27T10:00:42.572Z,2.25
2022-12-27T10:03:23.964Z,1.92
2022-12-27T10:06:26.685Z,2.38
2022-12-27T10:09:26.519Z,2.38
2022-12-27T10:12:27.984Z,1.92
2022-12-27T10:15:30.206Z,1.27
2022-12-27T10:18:37.914Z,3.05
2022-12-27T10:21:21.351Z,2.72
2022-12-27T10:24:17.359Z,3.08
2022-12-27T10:26:51.365Z,2.60
2022-12-27T10:29:25.995Z,2.75
2022-12-27T10:31:58.499Z,2.50
2022-12-27T10:34:31.558Z,2.45
2022-12-27T10:37:04.056Z,2.95
2022-12-27T10:39:38.658Z,2.90
2022-12-27T10:42:34.383Z,2.78
2022-12-27T10:45:25.599Z,3.13
2022-12-27T10:48:36.392Z,2.95
2022-12-27T10:51:23.461Z,3.42
2022-12-27T10:54:02.281Z,4.38
2022-12-27T10:56:38.931Z,3.67
2022-12-27T10:59:17.811Z,3.03
2022-12-27T11:02:16.773Z,3.08
2022-12-27T11:04:58.241Z,2.13
2022-12-27T11:07:33.790Z,3.13
2022-12-27T11:10:15.816Z,1.75
2022-12-27T11:12:58.994Z,2.40
2022-12-27T11:15:40.567Z,2.55
2022-12-27T11:18:19.811Z,3.30
2022-12-27T11:20:58.039Z,2.83
2022-12-27T11:23:40.510Z,3.03
2022-12-27T11:26:26.722Z,3.08
2022-12-27T11:29:03.158Z,3.05
2022-12-27T11:31:48.145Z,2.92
2022-12-27T11:34:31.494Z,3.00
2022-12-27T11:37:14.220Z,3.30
2022-12-27T11:40:25.672Z,1.95
2022-12-27T11:43:15.446Z,4.03
2022-12-27T11:45:51.496Z,2.88
2022-12-27T11:48:42.447Z,2.90
2022-12-27T11:51:42.934Z,2.33
2022-12-27T11:54:18.545Z,4.45
2022-12-27T11:57:14.644Z,2.88
2022-12-27T12:00:24.667Z,2.47
2022-12-27T12:05:57.066Z,5.45
2022-12-27T12:09:02.791Z,3.25
2022-12-27T12:11:57.982Z,4.15
2022-12-27T12:14:50.786Z,2.78
2022-12-27T12:17:41.850Z,3.25
2022-12-27T12:20:33.395Z,2.90
2022-12-27T12:23:27.347Z,4.60
2022-12-27T12:26:12.028Z,4.47
2022-12-27T12:29:23.383Z,4.25
2022-12-27T12:32:01.891Z,2.13
2022-12-27T12:34:56.032Z,4.70
2022-12-27T12:38:00.352Z,3.08
2022-12-27T12:41:10.842Z,3.72
2022-12-27T12:44:12.339Z,4.60
2022-12-27T12:47:12.106Z,2.88
2022-12-27T12:50:00.852Z,2.88
2022-12-27T12:53:04.248Z,3.58
2022-12-27T12:56:07.414Z,2.85
2022-12-27T12:58:58.437Z,2.92
2022-12-27T13:01:33.993Z,3.47
2022-12-27T13:04:31.679Z,3.10
2022-12-27T13:10:14.325Z,2.47
2022-12-27T13:13:17.600Z,3.13
2022-12-27T13:16:01.588Z,2.72
2022-12-27T13:19:13.034Z,2.55
2022-12-27T13:22:23.173Z,2.83
2022-12-27T13:25:51.495Z,2.22
2022-12-27T13:28:42.569Z,2.08
2022-12-27T13:31:24.153Z,2.60
2022-12-27T13:34:33.666Z,3.80
2022-12-27T13:37:12.104Z,2.72
2022-12-27T13:40:03.268Z,3.53
2022-12-27T13:43:04.647Z,4.05
2022-12-27T13:46:15.912Z,3.33
2022-12-27T13:52:59.994Z,2.72
2022-12-27T13:55:42.707Z,3.05
2022-12-27T13:58:47.232Z,3.03
2022-12-27T14:01:22.858Z,3.13
2022-12-27T14:04:13.121Z,2.28
2022-12-27T14:23:49.209Z,2.42
2022-12-27T14:26:40.243Z,1.65
2022-12-27T14:30:01.354Z,2.72
2022-12-27T14:33:15.196Z,2.90
2022-12-27T14:35:58.921Z,2.25
2022-12-27T14:38:53.805Z,2.30
2022-12-27T14:41:54.099Z,2.13
2022-12-27T14:45:03.793Z,2.72
2022-12-27T14:48:08.382Z,3.13
2022-12-27T14:50:46.672Z,2.75
2022-12-27T14:53:31.741Z,2.95
2022-12-27T14:56:16.162Z,2.35
2022-12-27T14:59:23.562Z,2.83
2022-12-27T15:02:27.467Z,2.88
2022-12-27T15:05:06.690Z,3.17
2022-12-27T15:07:57.423Z,3.03
2022-12-27T15:11:03.660Z,2.80
2022-12-27T15:13:59.693Z,2.42
2022-12-27T15:16:50.497Z,3.58
2022-12-27T15:22:36.065Z,1.90
2022-12-27T15:25:26.940Z,2.67
2022-12-27T15:28:16.133Z,3.60
2022-12-27T15:31:03.716Z,3.35
2022-12-27T15:33:53.654Z,3.08
2022-12-27T15:36:47.502Z,4.65
2022-12-27T15:39:35.608Z,1.65
2022-12-27T15:42:51.773Z,2.72
2022-12-27T15:45:44.198Z,2.28
2022-12-27T15:48:28.173Z,3.42
2022-12-27T15:51:22.910Z,2.38
2022-12-27T15:54:07.285Z,2.88
2022-12-27T15:56:49.195Z,3.13
2022-12-27T15:59:47.450Z,3.22
2022-12-27T16:02:49.490Z,2.85
2022-12-27T16:05:22.124Z,3.13
2022-12-27T16:08:00.272Z,3.17
2022-12-27T16:10:33.443Z,2.30
2022-12-27T16:13:42.385Z,2.72
2022-12-27T16:16:28.066Z,3.22
2022-12-27T16:19:28.316Z,3.13
2022-12-27T16:22:02.146Z,3.05
2022-12-27T16:24:35.666Z,3.63
2022-12-27T16:27:21.288Z,2.22
2022-12-27T16:29:55.722Z,3.55
2022-12-27T16:32:28.907Z,2.83
2022-12-27T16:35:14.026Z,2.90
2022-12-27T16:37:53.606Z,1.60
2022-12-27T16:40:35.072Z,3.15
2022-12-27T16:43:10.307Z,3.40
2022-12-27T16:46:18.556Z,2.53
2022-12-27T16:48:59.619Z,3.47
2022-12-27T16:52:00.619Z,3.75
2022-12-27T16:54:55.117Z,2.15
2022-12-27T16:57:28.038Z,2.67
2022-12-27T17:00:41.094Z,2.25
2022-12-27T17:03:34.753Z,2.78
2022-12-27T17:06:31.955Z,3.08
2022-12-27T17:09:09.053Z,3.10
2022-12-27T17:11:50.712Z,3.17
2022-12-27T17:14:31.601Z,3.30
2022-12-27T17:17:10.495Z,3.55
2022-12-27T17:20:09.589Z,2.53
2022-12-27T17:22:42.666Z,3.15
2022-12-27T17:25:17.935Z,3.22
2022-12-27T17:28:20.627Z,3.72
2022-12-27T17:31:16.558Z,4.25
2022-12-27T17:34:11.451Z,3.65
2022-12-27T17:36:55.578Z,3.78
2022-12-27T17:39:34.391Z,3.58
2022-12-27T17:42:46.703Z,2.47
2022-12-27T17:45:50.695Z,3.08
2022-12-27T17:48:28.809Z,4.05
2022-12-27T17:51:05.844Z,3.80
2022-12-27T17:54:10.919Z,4.63
2022-12-27T17:57:07.457Z,3.97
2022-12-27T17:59:44.606Z,4.32
2022-12-27T18:02:35.797Z,6.45
2022-12-27T18:05:14.805Z,4.47
2022-12-27T18:07:47.482Z,4.25
2022-12-27T18:10:27.622Z,4.22
2022-12-27T18:13:04.147Z,3.45
2022-12-27T18:15:44.586Z,3.25
2022-12-27T18:18:33.441Z,3.30
2022-12-27T18:21:07.119Z,3.70
2022-12-27T18:23:42.252Z,3.50
2022-12-27T18:26:16.057Z,4.07
2022-12-27T18:28:49.103Z,3.88
2022-12-27T18:31:50.861Z,3.88
2022-12-27T18:34:40.258Z,3.88
2022-12-27T18:37:24.792Z,2.95
2022-12-27T18:40:02.268Z,4.10
2022-12-27T18:42:41.172Z,3.70
2022-12-27T18:45:21.956Z,4.13
2022-12-27T18:47:57.997Z,3.55
2022-12-27T18:50:35.076Z,3.97
2022-12-27T18:53:22.479Z,3.00
2022-12-27T18:56:13.487Z,3.22
2022-12-27T18:59:12.991Z,3.92
2022-12-27T19:01:47.131Z,3.15
2022-12-27T19:05:05.985Z,3.83
2022-12-27T19:07:38.522Z,2.72
2022-12-27T19:10:20.849Z,3.70
2022-12-27T19:12:54.679Z,3.72
2022-12-27T19:15:41.638Z,3.13
2022-12-27T19:18:37.083Z,3.55
2022-12-27T19:21:16.514Z,3.40
2022-12-27T19:23:49.542Z,3.22
2022-12-27T19:26:32.851Z,3.05
2022-12-27T19:29:16.368Z,4.03
2022-12-27T19:32:03.373Z,3.25
2022-12-27T19:34:48.944Z,3.60
2022-12-27T19:37:26.767Z,2.95
2022-12-27T19:39:59.751Z,3.70
2022-12-27T19:42:34.996Z,3.72
2022-12-27T19:45:10.614Z,3.97
2022-12-27T19:47:43.404Z,3.75
2022-12-27T19:50:18.091Z,3.58
2022-12-27T19:52:51.229Z,3.22
2022-12-27T19:55:26.972Z,3.33
2022-12-27T19:57:59.796Z,3.55
2022-12-27T20:00:32.312Z,3.78
2022-12-27T20:03:05.735Z,3.15
2022-12-27T20:06:13.692Z,2.88
2022-12-27T20:08:35.336Z,3.20
2022-12-27T20:11:14.436Z,3.97
2022-12-27T20:13:48.142Z,3.15
2022-12-27T20:16:20.928Z,2.97
2022-12-27T20:18:53.831Z,3.15
2022-12-27T20:21:26.346Z,2.83
2022-12-27T20:23:59.176Z,2.63
2022-12-27T20:26:31.780Z,2.95
2022-12-27T20:29:04.732Z,3.53
2022-12-27T20:31:44.276Z,3.00
2022-12-27T20:36:52.161Z,2.45
2022-12-27T20:39:25.040Z,2.40
2022-12-27T20:41:57.525Z,3.17
2022-12-27T20:44:30.346Z,2.20
2022-12-27T20:47:02.817Z,2.78
2022-12-27T20:49:35.596Z,3.40
2022-12-27T20:52:08.625Z,2.88
2022-12-27T20:54:42.216Z,1.45
2022-12-27T20:57:14.732Z,2.20
2022-12-27T20:59:48.050Z,1.88
2022-12-27T21:02:20.657Z,2.42
2022-12-27T21:04:53.715Z,2.75
2022-12-27T21:07:26.276Z,2.25
2022-12-27T21:09:59.187Z,2.80
2022-12-27T21:12:32.539Z,2.20
2022-12-27T21:15:08.345Z,2.58
2022-12-27T21:17:40.819Z,2.42
2022-12-27T21:20:13.829Z,2.40
2022-12-27T21:22:46.318Z,2.40
2022-12-27T21:25:19.109Z,2.53
2022-12-27T21:27:51.607Z,2.33
2022-12-27T21:30:24.404Z,2.13
2022-12-27T21:32:56.915Z,2.33
2022-12-27T21:35:29.744Z,2.78
2022-12-27T21:38:02.259Z,3.15
2022-12-27T21:40:35.040Z,3.35
2022-12-27T21:43:07.506Z,2.75
2022-12-27T21:45:40.388Z,2.58
2022-12-27T21:48:12.865Z,2.38
2022-12-27T21:50:46.101Z,2.70
2022-12-27T21:53:19.543Z,2.50
2022-12-27T21:55:58.281Z,3.20
2022-12-27T21:58:35.874Z,2.13
2022-12-27T22:01:29.796Z,2.65
2022-12-27T22:04:02.485Z,3.25
2022-12-27T22:06:41.809Z,2.60
2022-12-27T22:09:19.777Z,2.88
2022-12-27T22:11:52.748Z,1.45
2022-12-27T22:14:26.064Z,3.10
2022-12-27T22:17:00.689Z,2.50
2022-12-27T22:19:35.691Z,2.78
2022-12-27T22:22:09.757Z,3.08
2022-12-27T22:24:54.431Z,3.10
2022-12-27T22:27:29.006Z,3.33
2022-12-27T22:30:01.617Z,2.45
2022-12-27T22:32:34.527Z,2.47
2022-12-27T22:35:07.295Z,3.65
2022-12-27T22:37:40.143Z,4.20
2022-12-27T22:40:40.795Z,5.10
2022-12-27T22:43:08.105Z,4.70
2022-12-27T22:45:51.941Z,5.13
2022-12-27T22:48:29.202Z,4.50
2022-12-27T22:51:18.439Z,5.45
2022-12-27T22:53:51.837Z,3.97
2022-12-27T22:56:32.012Z,4.55
2022-12-27T23:01:42.200Z,3.97
2022-12-27T23:04:15.376Z,4.70
2022-12-27T23:06:47.982Z,4.53
2022-12-27T23:09:23.564Z,4.85
2022-12-27T23:11:56.151Z,4.85
2022-12-27T23:14:29.040Z,4.10
2022-12-27T23:17:01.580Z,3.92
2022-12-27T23:19:34.430Z,5.40
2022-12-27T23:22:07.075Z,4.10
2022-12-27T23:24:40.398Z,5.00
2022-12-27T23:27:12.928Z,4.75
2022-12-27T23:29:45.756Z,5.05
2022-12-27T23:32:18.477Z,5.68
2022-12-27T23:34:53.869Z,3.40
2022-12-27T23:37:26.332Z,4.35
2022-12-27T23:39:59.135Z,4.10
2022-12-27T23:42:31.640Z,6.00
2022-12-27T23:45:04.674Z,4.75
2022-12-27T23:47:37.223Z,5.30
2022-12-27T23:50:12.380Z,4.88
2022-12-27T23:52:48.432Z,3.92
2022-12-27T23:55:21.232Z,6.40
2022-12-27T23:57:53.731Z,4.53
